Albert City, Iowa
Current Conditions -  °F | °C
As of 11:35 PM on Wednesday 22 Oct 2014 (Local Time) from KSLB Reporting Station
Overcast Overcast  
Wind Chill: 55°   Ceiling: 6000
Heat Index: 55°   Visibility: 10mi
Dew Point: 55°   Wind: 12mph
Humidity: 100%   Direction: 160°SSE
Pressure: 30.05"   Gusts: NA
Location:  42.78°N, 94.95°W
Report Text: KSLB 230435Z AUTO 16010KT 10SM FEW027 OVC060 13/13 A3005 RMK AO2
Loading
Personal Weather Stations






























Interactive Weather Map New forecast layout! Learn more

10-Day Weather Forecast

Advertisements
Track Severe Weather on mobile